Time,TemperatureF,DewpointF,PressureIn,WindDirection,WindDirectionDegrees,WindSpeedMPH,WindSpeedGustMPH,Humidity,HourlyPrecipIn,Conditions,Clouds,dailyrainin,SolarRadiationWatts/m^2,SoftwareType,DateUTC
2013-08-07 00:03:00,65.0,59.0,29.94,NE,49,8.1,8.1,81,0.13,RA,,0.00,0.0,WeatherDisplay:10.37,2013-08-06 22:03:00,
2013-08-07 00:08:00,65.1,59.1,29.94,NE,36,1.2,1.2,81,0.13,RA,,0.00,0.0,WeatherDisplay:10.37,2013-08-06 22:08:00,
2013-08-07 00:13:00,65.1,59.1,29.94,NE,36,2.3,0.0,81,0.14,RA,,0.01,0.0,WeatherDisplay:10.37,2013-08-06 22:13:00,
2013-08-07 00:18:00,65.0,59.4,29.93,North,11,5.0,5.0,82,0.14,RA,,0.01,0.0,WeatherDisplay:10.37,2013-08-06 22:18:00,
2013-08-07 00:23:00,65.1,59.5,29.92,North,11,2.3,0.0,82,0.15,RA,,0.02,0.0,WeatherDisplay:10.37,2013-08-06 22:23:00,
2013-08-07 00:28:00,65.2,59.6,29.93,North,11,2.3,2.3,82,0.16,RA,,0.02,0.0,WeatherDisplay:10.37,2013-08-06 22:28:00,
2013-08-07 00:33:00,65.5,59.9,29.93,North,11,0.0,0.0,82,0.16,RA,,0.02,0.0,WeatherDisplay:10.37,2013-08-06 22:33:00,
2013-08-07 00:38:00,65.1,59.5,29.93,North,355,5.0,5.0,82,0.16,RA,,0.03,0.0,WeatherDisplay:10.37,2013-08-06 22:38:00,
2013-08-07 00:43:00,65.1,59.5,29.91,NNW,340,4.6,4.6,82,0.16,RA,,0.04,0.0,WeatherDisplay:10.37,2013-08-06 22:43:00,
2013-08-07 00:48:00,65.0,59.4,29.88,North,360,4.0,4.0,82,0.15,RA,,0.05,0.0,WeatherDisplay:10.37,2013-08-06 22:48:00,
2013-08-07 00:53:00,65.0,59.4,29.87,North,350,4.6,4.6,82,0.10,RA,,0.06,0.0,WeatherDisplay:10.37,2013-08-06 22:53:00,
2013-08-07 00:58:00,65.1,59.5,29.87,NNW,339,6.9,6.9,82,0.07,RA,,0.06,0.0,WeatherDisplay:10.37,2013-08-06 22:58:00,
2013-08-07 01:03:00,65.1,59.5,29.88,North,360,3.5,3.5,82,0.06,RA,,0.06,0.0,WeatherDisplay:10.37,2013-08-06 23:03:00,
2013-08-07 01:08:00,65.1,59.5,29.89,SSE,160,10.4,10.4,82,0.06,,,0.06,0.0,WeatherDisplay:10.37,2013-08-06 23:08:00,
2013-08-07 01:13:00,65.2,59.6,29.90,South,188,5.0,5.0,82,0.06,CLR,,0.06,0.0,WeatherDisplay:10.37,2013-08-06 23:13:00,
2013-08-07 01:19:00,65.2,59.6,29.90,SSE,149,10.0,10.0,82,0.06,CLR,,0.06,0.0,WeatherDisplay:10.37,2013-08-06 23:19:00,
2013-08-07 01:24:00,65.3,59.7,29.96,SSW,195,24.2,24.2,82,0.05,CLR,,0.06,0.0,WeatherDisplay:10.37,2013-08-06 23:24:00,
2013-08-07 01:29:00,65.4,59.8,29.96,SE,136,31.1,31.1,82,0.04,CLR,,0.06,0.0,WeatherDisplay:10.37,2013-08-06 23:29:00,
2013-08-07 01:34:00,65.7,60.4,29.98,SE,136,24.2,24.2,83,0.04,CLR,,0.06,0.0,WeatherDisplay:10.37,2013-08-06 23:34:00,
2013-08-07 01:39:00,65.7,60.4,29.99,SSW,192,18.4,18.4,83,0.04,RA,,0.07,0.0,WeatherDisplay:10.37,2013-08-06 23:39:00,
2013-08-07 01:44:00,65.6,60.3,29.98,SSE,167,10.4,10.4,83,0.03,RA,,0.07,0.0,WeatherDisplay:10.37,2013-08-06 23:44:00,
2013-08-07 01:49:00,65.4,60.1,29.98,South,186,11.5,11.5,83,0.02,CLR,,0.07,0.0,WeatherDisplay:10.37,2013-08-06 23:49:00,
2013-08-07 01:54:00,65.3,60.0,29.99,SSW,209,11.5,11.5,83,0.02,CLR,,0.07,0.0,WeatherDisplay:10.37,2013-08-06 23:54:00,
2013-08-07 01:59:00,65.3,60.0,29.99,SSE,165,10.4,10.4,83,0.01,CLR,,0.07,0.0,WeatherDisplay:10.37,2013-08-06 23:59:00,
2013-08-07 02:04:00,65.4,60.4,29.99,SE,135,8.0,8.0,84,0.01,CLR,,0.07,0.0,WeatherDisplay:10.37,2013-08-07 00:04:00,
2013-08-07 02:09:00,65.3,60.3,29.98,ESE,118,12.0,12.0,84,0.01,CLR,,0.07,0.0,WeatherDisplay:10.37,2013-08-07 00:09:00,
2013-08-07 02:14:00,65.3,60.3,29.98,SE,126,8.1,8.1,84,0.01,CLR,,0.07,0.0,WeatherDisplay:10.37,2013-08-07 00:14:00,
2013-08-07 02:19:00,65.1,60.1,29.98,SE,140,9.2,9.2,84,0.01,CLR,,0.07,0.0,WeatherDisplay:10.37,2013-08-07 00:19:00,
2013-08-07 02:24:00,65.0,60.0,29.97,SE,144,8.1,8.1,84,0.01,CLR,,0.07,0.0,WeatherDisplay:10.37,2013-08-07 00:24:00,
2013-08-07 02:29:00,65.1,60.1,29.97,SE,131,11.5,11.5,84,0.02,RA,,0.08,0.0,WeatherDisplay:10.37,2013-08-07 00:29:00,
2013-08-07 02:34:00,65.0,60.0,29.97,East,88,8.1,8.1,84,0.02,RA,,0.08,0.0,WeatherDisplay:10.37,2013-08-07 00:34:00,
2013-08-07 02:39:00,65.0,60.0,29.97,ESE,107,8.1,8.1,84,0.02,RA,,0.09,0.0,WeatherDisplay:10.37,2013-08-07 00:39:00,
2013-08-07 02:44:00,65.1,60.1,29.97,SE,124,11.5,11.5,84,0.02,RA,,0.09,0.0,WeatherDisplay:10.37,2013-08-07 00:44:00,
2013-08-07 02:46:00,65.1,60.1,29.97,South,178,13.0,13.0,84,0.02,RA,,0.09,0.0,WeatherDisplay:10.37,2013-08-07 00:46:00,
2013-08-07 02:51:00,65.2,60.2,29.96,South,185,16.1,16.1,84,0.03,RA,,0.10,0.0,WeatherDisplay:10.37,2013-08-07 00:51:00,
2013-08-07 02:56:00,65.1,60.1,29.95,SSE,148,13.8,13.8,84,0.04,RA,,0.11,0.0,WeatherDisplay:10.37,2013-08-07 00:56:00,
2013-08-07 03:01:00,64.9,59.9,29.94,SE,126,15.0,15.0,84,0.06,RA,,0.13,0.0,WeatherDisplay:10.37,2013-08-07 01:01:00,
2013-08-07 03:06:00,64.8,59.9,29.93,SE,130,19.6,19.6,84,0.07,RA,,0.14,0.0,WeatherDisplay:10.37,2013-08-07 01:06:00,
2013-08-07 03:11:00,64.6,59.7,29.93,SE,130,13.8,13.8,84,0.09,RA,,0.16,0.0,WeatherDisplay:10.37,2013-08-07 01:11:00,
2013-08-07 03:16:00,64.5,59.6,29.92,SE,145,12.7,12.7,84,0.09,RA,,0.17,0.0,WeatherDisplay:10.37,2013-08-07 01:16:00,
2013-08-07 03:21:00,64.4,59.1,29.92,SE,146,8.1,8.1,83,0.10,RA,,0.17,0.0,WeatherDisplay:10.37,2013-08-07 01:21:00,
2013-08-07 03:26:00,64.2,58.9,29.90,SE,141,8.1,8.1,83,0.10,RA,,0.18,0.0,WeatherDisplay:10.37,2013-08-07 01:26:00,
2013-08-07 03:31:00,64.0,58.7,29.89,SE,141,2.3,2.3,83,0.11,RA,,0.19,0.0,WeatherDisplay:10.37,2013-08-07 01:31:00,
2013-08-07 03:36:00,63.9,58.6,29.88,SE,141,1.2,0.0,83,0.11,RA,,0.19,0.0,WeatherDisplay:10.37,2013-08-07 01:36:00,
2013-08-07 03:41:00,63.7,58.1,29.88,SE,141,4.0,4.0,82,0.10,,,0.19,0.0,WeatherDisplay:10.37,2013-08-07 01:41:00,
2013-08-07 03:46:00,63.6,58.0,29.88,SE,141,2.3,2.3,82,0.10,RA,,0.20,0.0,WeatherDisplay:10.37,2013-08-07 01:46:00,
2013-08-07 03:51:00,63.8,58.2,29.87,SE,141,1.2,1.2,82,0.09,RA,,0.20,0.0,WeatherDisplay:10.37,2013-08-07 01:51:00,
2013-08-07 03:56:00,63.7,58.1,29.87,SE,141,2.3,2.3,82,0.09,,,0.20,0.0,WeatherDisplay:10.37,2013-08-07 01:56:00,
2013-08-07 04:01:00,63.3,57.7,29.87,SE,141,2.3,2.3,82,0.07,CLR,,0.20,0.0,WeatherDisplay:10.37,2013-08-07 02:01:00,
2013-08-07 04:06:00,63.2,57.6,29.87,WSW,248,4.0,4.0,82,0.06,CLR,,0.20,0.0,WeatherDisplay:10.37,2013-08-07 02:06:00,
2013-08-07 04:11:00,63.3,57.7,29.86,WSW,248,3.5,3.5,82,0.04,CLR,,0.20,0.0,WeatherDisplay:10.37,2013-08-07 02:11:00,
2013-08-07 04:16:00,63.3,57.7,29.87,West,271,4.0,4.0,82,0.03,CLR,,0.20,0.0,WeatherDisplay:10.37,2013-08-07 02:16:00,
2013-08-07 04:21:00,63.4,57.8,29.87,West,268,6.9,6.9,82,0.02,CLR,,0.20,0.0,WeatherDisplay:10.37,2013-08-07 02:21:00,
2013-08-07 04:26:00,63.4,57.8,29.88,West,272,3.5,3.5,82,0.02,CLR,,0.20,0.0,WeatherDisplay:10.37,2013-08-07 02:26:00,
2013-08-07 04:31:00,63.4,57.8,29.88,West,259,5.0,5.0,82,0.01,CLR,,0.20,0.0,WeatherDisplay:10.37,2013-08-07 02:31:00,
2013-08-07 04:36:00,63.3,57.7,29.87,SW,232,6.9,6.9,82,0.01,CLR,,0.20,0.0,WeatherDisplay:10.37,2013-08-07 02:36:00,
2013-08-07 04:41:00,63.4,57.8,29.88,WSW,240,5.8,5.8,82,0.01,CLR,,0.20,0.0,WeatherDisplay:10.37,2013-08-07 02:41:00,
2013-08-07 04:46:00,63.5,57.9,29.88,WSW,240,3.5,3.5,82,0.00,CLR,,0.20,0.0,WeatherDisplay:10.37,2013-08-07 02:46:00,
2013-08-07 04:51:00,63.5,57.9,29.88,WSW,240,7.0,7.0,82,0.00,CLR,,0.20,0.0,WeatherDisplay:10.37,2013-08-07 02:51:00,
2013-08-07 04:56:00,63.4,57.8,29.88,WSW,240,5.0,5.0,82,0.00,CLR,,0.20,0.0,WeatherDisplay:10.37,2013-08-07 02:56:00,
2013-08-07 05:01:00,63.4,57.8,29.88,West,259,5.8,5.8,82,0.00,CLR,,0.20,0.0,WeatherDisplay:10.37,2013-08-07 03:01:00,
2013-08-07 05:06:00,63.3,57.7,29.88,WNW,286,9.2,9.2,82,0.00,CLR,,0.20,0.0,WeatherDisplay:10.37,2013-08-07 03:06:00,
2013-08-07 05:11:00,63.3,57.7,29.88,West,277,8.1,8.1,82,0.00,CLR,,0.20,0.0,WeatherDisplay:10.37,2013-08-07 03:11:00,
2013-08-07 05:16:00,63.3,57.7,29.88,WNW,282,8.1,8.1,82,0.00,OVC,,0.20,0.0,WeatherDisplay:10.37,2013-08-07 03:16:00,
2013-08-07 05:21:00,63.4,57.8,29.89,West,275,5.8,5.8,82,0.00,OVC,,0.20,0.0,WeatherDisplay:10.37,2013-08-07 03:21:00,
2013-08-07 05:26:00,63.4,57.8,29.89,West,275,4.0,4.0,82,0.00,OVC,,0.20,0.0,WeatherDisplay:10.37,2013-08-07 03:26:00,
2013-08-07 05:31:00,63.5,57.9,29.90,West,275,3.5,3.5,82,0.00,OVC,,0.20,0.0,WeatherDisplay:10.37,2013-08-07 03:31:00,
2013-08-07 05:36:00,63.5,57.9,29.90,West,261,5.0,5.0,82,0.00,OVC,,0.20,0.0,WeatherDisplay:10.37,2013-08-07 03:36:00,
2013-08-07 05:41:00,63.5,57.9,29.90,SW,232,3.5,3.5,82,0.00,OVC,,0.20,0.0,WeatherDisplay:10.37,2013-08-07 03:41:00,
2013-08-07 05:46:00,63.6,58.0,29.90,SW,232,1.2,1.2,82,0.00,OVC,,0.20,0.0,WeatherDisplay:10.37,2013-08-07 03:46:00,
2013-08-07 05:51:00,63.8,58.2,29.91,SSE,151,5.0,5.0,82,0.00,OVC,,0.20,0.0,WeatherDisplay:10.37,2013-08-07 03:51:00,
2013-08-07 05:56:00,63.6,58.0,29.91,ESE,119,7.0,7.0,82,0.00,OVC,,0.20,0.0,WeatherDisplay:10.37,2013-08-07 03:56:00,
2013-08-07 06:01:00,63.4,57.8,29.92,SE,136,6.9,6.9,82,0.00,OVC,,0.20,5.0,WeatherDisplay:10.37,2013-08-07 04:01:00,
2013-08-07 06:02:00,63.4,57.8,29.92,SE,130,5.8,5.8,82,0.00,OVC,,0.20,5.0,WeatherDisplay:10.37,2013-08-07 04:02:00,
2013-08-07 06:05:00,63.4,57.8,29.91,SSE,152,12.7,12.7,82,0.00,OVC,,0.20,7.0,WeatherDisplay:10.37,2013-08-07 04:05:00,
2013-08-07 06:07:00,63.3,57.7,29.92,SE,134,8.0,8.0,82,0.00,OVC,,0.20,9.0,WeatherDisplay:10.37,2013-08-07 04:07:00,
2013-08-07 06:12:00,63.2,57.6,29.92,SE,141,6.9,6.9,82,0.00,OVC,,0.20,9.0,WeatherDisplay:10.37,2013-08-07 04:12:00,
2013-08-07 06:16:00,63.1,57.5,29.92,SE,140,4.6,4.6,82,0.00,OVC,,0.20,9.0,WeatherDisplay:10.37,2013-08-07 04:16:00,
2013-08-07 06:21:00,63.1,57.5,29.93,SE,140,4.6,4.6,82,0.00,OVC,,0.20,11.0,WeatherDisplay:10.37,2013-08-07 04:21:00,
2013-08-07 06:26:00,63.2,57.6,29.93,SE,139,3.5,3.5,82,0.00,OVC,,0.20,18.0,WeatherDisplay:10.37,2013-08-07 04:26:00,
2013-08-07 06:31:00,63.5,57.9,29.93,SE,140,4.6,4.6,82,0.00,OVC,,0.20,26.0,WeatherDisplay:10.37,2013-08-07 04:31:00,
2013-08-07 06:36:00,63.8,58.2,29.93,SE,139,5.0,5.0,82,0.00,OVC,,0.20,26.0,WeatherDisplay:10.37,2013-08-07 04:36:00,
2013-08-07 06:41:00,63.6,58.0,29.92,SE,136,3.5,3.5,82,0.00,OVC,,0.20,44.0,WeatherDisplay:10.37,2013-08-07 04:41:00,
2013-08-07 06:46:00,64.0,58.4,29.92,ESE,123,5.8,5.8,82,0.00,OVC,,0.20,42.0,WeatherDisplay:10.37,2013-08-07 04:46:00,
2013-08-07 06:51:00,64.7,59.1,29.91,ESE,123,2.3,2.3,82,0.00,OVC,,0.20,44.0,WeatherDisplay:10.37,2013-08-07 04:51:00,
2013-08-07 06:56:00,65.1,59.5,29.91,ESE,123,1.2,1.2,82,0.00,OVC,,0.20,56.0,WeatherDisplay:10.37,2013-08-07 04:56:00,
2013-08-07 07:01:00,65.6,60.0,29.91,ESE,123,2.3,2.3,82,0.00,OVC,,0.20,74.0,WeatherDisplay:10.37,2013-08-07 05:01:00,
2013-08-07 07:06:00,65.5,59.9,29.91,ESE,123,3.5,3.5,82,0.00,OVC,,0.20,79.0,WeatherDisplay:10.37,2013-08-07 05:06:00,
2013-08-07 07:11:00,65.7,60.1,29.91,ESE,123,0.0,0.0,82,0.00,OVC,,0.20,86.0,WeatherDisplay:10.37,2013-08-07 05:11:00,
2013-08-07 07:16:00,66.1,60.4,29.92,ESE,123,0.0,0.0,82,0.00,OVC,,0.20,90.0,WeatherDisplay:10.37,2013-08-07 05:16:00,
2013-08-07 07:21:00,66.0,60.7,29.91,ESE,123,2.3,2.3,83,0.00,OVC,,0.20,95.0,WeatherDisplay:10.37,2013-08-07 05:21:00,
2013-08-07 07:26:00,66.3,61.0,29.92,ESE,123,2.3,2.3,83,0.00,OVC,,0.20,97.0,WeatherDisplay:10.37,2013-08-07 05:26:00,
2013-08-07 07:31:00,66.6,61.3,29.92,ESE,123,0.0,0.0,83,0.00,OVC,,0.20,104.0,WeatherDisplay:10.37,2013-08-07 05:31:00,
2013-08-07 07:36:00,66.1,61.1,29.92,ESE,123,3.5,3.5,84,0.00,BKN,,0.20,139.0,WeatherDisplay:10.37,2013-08-07 05:36:00,
2013-08-07 07:41:00,66.6,61.3,29.93,ESE,123,1.2,0.0,83,0.00,BKN,,0.20,135.0,WeatherDisplay:10.37,2013-08-07 05:41:00,
2013-08-07 07:46:00,67.1,62.4,29.93,ESE,123,1.2,1.2,85,0.00,BKN,,0.20,160.0,WeatherDisplay:10.37,2013-08-07 05:46:00,
2013-08-07 07:51:00,67.8,62.8,29.93,ESE,123,2.3,2.3,84,0.00,SCT,,0.20,169.0,WeatherDisplay:10.37,2013-08-07 05:51:00,
2013-08-07 07:56:00,68.7,64.0,29.93,ESE,123,2.3,2.3,85,0.00,BKN,,0.20,163.0,WeatherDisplay:10.37,2013-08-07 05:56:00,
2013-08-07 08:01:00,69.6,64.5,29.93,ESE,123,4.0,4.0,84,0.00,BKN,,0.20,193.0,WeatherDisplay:10.37,2013-08-07 06:01:00,
2013-08-07 08:06:00,68.8,63.8,29.93,ENE,77,5.0,5.0,84,0.00,FEW,,0.20,315.0,WeatherDisplay:10.37,2013-08-07 06:06:00,
2013-08-07 08:11:00,68.8,63.8,29.93,ENE,75,2.3,2.3,84,0.00,BKN,,0.20,183.0,WeatherDisplay:10.37,2013-08-07 06:11:00,
2013-08-07 08:16:00,68.9,63.9,29.93,ENE,75,3.5,3.5,84,0.00,BKN,,0.20,279.0,WeatherDisplay:10.37,2013-08-07 06:16:00,
2013-08-07 08:21:00,69.4,64.4,29.93,ENE,75,1.2,1.2,84,0.00,BKN,,0.20,336.0,WeatherDisplay:10.37,2013-08-07 06:21:00,
2013-08-07 08:26:00,69.8,64.7,29.94,ENE,75,2.3,2.3,84,0.00,BKN,,0.20,209.0,WeatherDisplay:10.37,2013-08-07 06:26:00,
2013-08-07 08:31:00,69.4,64.0,29.94,ENE,75,3.5,3.5,83,0.00,BKN,,0.20,220.0,WeatherDisplay:10.37,2013-08-07 06:31:00,
2013-08-07 08:36:00,69.4,64.0,29.94,ENE,75,3.5,3.5,83,0.00,CLR,,0.20,503.0,WeatherDisplay:10.37,2013-08-07 06:36:00,
2013-08-07 08:41:00,70.2,64.4,29.93,ENE,75,2.3,2.3,82,0.00,FEW,,0.20,513.0,WeatherDisplay:10.37,2013-08-07 06:41:00,
2013-08-07 08:46:00,71.1,65.3,29.94,ENE,76,3.0,3.0,82,0.00,CLR,,0.20,531.0,WeatherDisplay:10.37,2013-08-07 06:46:00,
2013-08-07 08:51:00,70.6,64.1,29.94,ENE,63,3.5,3.5,80,0.00,CLR,,0.20,476.0,WeatherDisplay:10.37,2013-08-07 06:51:00,
2013-08-07 08:56:00,70.8,64.7,29.94,NE,51,6.9,6.9,81,0.00,SCT,,0.20,374.0,WeatherDisplay:10.37,2013-08-07 06:56:00,
2013-08-07 09:01:00,70.0,64.2,29.93,ENE,68,4.6,4.6,82,0.00,SCT,,0.20,339.0,WeatherDisplay:10.37,2013-08-07 07:01:00,
2013-08-07 09:06:00,70.0,64.2,29.94,East,87,4.0,4.0,82,0.00,SCT,,0.20,373.0,WeatherDisplay:10.37,2013-08-07 07:06:00,
2013-08-07 09:11:00,70.6,64.8,29.93,ESE,112,4.6,4.6,82,0.00,SCT,,0.20,436.0,WeatherDisplay:10.37,2013-08-07 07:11:00,
2013-08-07 09:16:00,70.6,64.1,29.93,ENE,76,4.6,4.6,80,0.00,SCT,,0.20,431.0,WeatherDisplay:10.37,2013-08-07 07:16:00,
2013-08-07 09:21:00,71.5,66.1,29.93,East,84,4.6,4.6,83,0.00,FEW,,0.20,531.0,WeatherDisplay:10.37,2013-08-07 07:21:00,
2013-08-07 09:26:00,72.1,65.6,29.93,East,96,5.8,5.8,80,0.00,FEW,,0.20,520.0,WeatherDisplay:10.37,2013-08-07 07:26:00,
2013-08-07 09:31:00,71.8,64.9,29.93,East,83,3.5,3.5,79,0.00,FEW,,0.20,541.0,WeatherDisplay:10.37,2013-08-07 07:31:00,
2013-08-07 09:36:00,72.0,65.5,29.94,East,83,3.5,3.5,80,0.00,FEW,,0.20,520.0,WeatherDisplay:10.37,2013-08-07 07:36:00,
2013-08-07 09:41:00,72.9,65.3,29.94,ENE,72,5.8,5.8,77,0.00,FEW,,0.20,557.0,WeatherDisplay:10.37,2013-08-07 07:41:00,
2013-08-07 09:46:00,72.9,66.0,29.94,East,85,4.6,4.6,79,0.00,FEW,,0.20,550.0,WeatherDisplay:10.37,2013-08-07 07:46:00,
2013-08-07 09:51:00,73.8,65.8,29.93,East,98,5.8,5.8,76,0.00,FEW,,0.20,570.0,WeatherDisplay:10.37,2013-08-07 07:51:00,
2013-08-07 09:56:00,73.1,65.8,29.93,East,80,4.6,4.6,78,0.00,FEW,,0.20,582.0,WeatherDisplay:10.37,2013-08-07 07:56:00,
2013-08-07 10:01:00,73.4,65.4,29.93,SE,125,6.0,6.0,76,0.00,FEW,,0.20,591.0,WeatherDisplay:10.37,2013-08-07 08:01:00,
2013-08-07 10:06:00,73.9,67.0,29.92,East,81,3.5,3.5,79,0.00,FEW,,0.20,599.0,WeatherDisplay:10.37,2013-08-07 08:06:00,
2013-08-07 10:11:00,74.2,66.1,29.92,East,92,6.0,6.0,76,0.00,FEW,,0.20,613.0,WeatherDisplay:10.37,2013-08-07 08:11:00,
2013-08-07 10:16:00,73.9,66.2,29.92,ENE,62,5.8,5.8,77,0.00,FEW,,0.20,621.0,WeatherDisplay:10.37,2013-08-07 08:16:00,
2013-08-07 10:21:00,73.7,66.4,29.92,ENE,68,5.8,5.8,78,0.00,FEW,,0.20,633.0,WeatherDisplay:10.37,2013-08-07 08:21:00,
2013-08-07 10:26:00,75.4,67.7,29.92,ESE,113,4.6,4.6,77,0.00,FEW,,0.20,640.0,WeatherDisplay:10.37,2013-08-07 08:26:00,
2013-08-07 10:31:00,75.2,65.9,29.92,East,81,5.8,5.8,73,0.00,FEW,,0.20,649.0,WeatherDisplay:10.37,2013-08-07 08:31:00,
2013-08-07 10:36:00,74.8,66.3,29.92,ENE,76,3.5,3.5,75,0.00,FEW,,0.20,657.0,WeatherDisplay:10.37,2013-08-07 08:36:00,
2013-08-07 10:41:00,75.5,67.4,29.92,ESE,111,6.0,6.0,76,0.00,FEW,,0.20,666.0,WeatherDisplay:10.37,2013-08-07 08:41:00,
2013-08-07 10:46:00,75.6,67.5,29.93,SE,128,6.0,6.0,76,0.00,FEW,,0.20,671.0,WeatherDisplay:10.37,2013-08-07 08:46:00,
2013-08-07 10:51:00,75.9,67.4,29.93,ESE,115,5.8,5.8,75,0.00,FEW,,0.20,684.0,WeatherDisplay:10.37,2013-08-07 08:51:00,
2013-08-07 10:56:00,76.7,67.4,29.93,ESE,123,6.9,6.9,73,0.00,SCT,,0.20,682.0,WeatherDisplay:10.37,2013-08-07 08:56:00,
2013-08-07 11:01:00,76.6,68.1,29.93,ENE,73,8.0,8.0,75,0.00,FEW,,0.20,693.0,WeatherDisplay:10.37,2013-08-07 09:01:00,
2013-08-07 11:06:00,76.2,68.1,29.93,ESE,102,6.9,6.9,76,0.00,FEW,,0.20,701.0,WeatherDisplay:10.37,2013-08-07 09:06:00,
2013-08-07 11:11:00,76.7,67.4,29.93,East,90,6.0,6.0,73,0.00,FEW,,0.20,710.0,WeatherDisplay:10.37,2013-08-07 09:11:00,
2013-08-07 11:16:00,76.1,66.4,29.93,East,86,8.1,8.1,72,0.00,FEW,,0.20,721.0,WeatherDisplay:10.37,2013-08-07 09:16:00,
2013-08-07 11:21:00,76.1,66.8,29.93,ESE,115,4.6,4.6,73,0.00,FEW,,0.20,722.0,WeatherDisplay:10.37,2013-08-07 09:21:00,
2013-08-07 11:26:00,75.9,67.4,29.93,ENE,73,5.8,5.8,75,0.00,FEW,,0.20,726.0,WeatherDisplay:10.37,2013-08-07 09:26:00,
2013-08-07 11:31:00,76.5,67.6,29.93,ENE,59,8.1,8.1,74,0.00,FEW,,0.20,729.0,WeatherDisplay:10.37,2013-08-07 09:31:00,
2013-08-07 11:36:00,76.5,67.6,29.93,ENE,58,4.0,4.0,74,0.00,FEW,,0.20,731.0,WeatherDisplay:10.37,2013-08-07 09:36:00,
2013-08-07 11:41:00,77.2,68.3,29.93,NE,36,5.8,5.8,74,0.00,FEW,,0.20,722.0,WeatherDisplay:10.37,2013-08-07 09:41:00,
2013-08-07 11:46:00,77.2,68.7,29.94,ENE,73,3.5,3.5,75,0.00,BKN,,0.20,759.0,WeatherDisplay:10.37,2013-08-07 09:46:00,
2013-08-07 11:51:00,78.4,69.0,29.94,ENE,71,3.5,3.5,73,0.00,FEW,,0.20,758.0,WeatherDisplay:10.37,2013-08-07 09:51:00,
2013-08-07 11:56:00,78.4,67.4,29.94,ENE,71,1.2,1.2,69,0.00,FEW,,0.20,761.0,WeatherDisplay:10.37,2013-08-07 09:56:00,
2013-08-07 12:01:00,78.7,69.7,29.94,ENE,71,4.0,4.0,74,0.00,FEW,,0.20,766.0,WeatherDisplay:10.37,2013-08-07 10:01:00,
2013-08-07 12:06:00,79.1,69.3,29.94,ENE,70,2.3,2.3,72,0.00,FEW,,0.20,770.0,WeatherDisplay:10.37,2013-08-07 10:06:00,
2013-08-07 12:11:00,78.8,67.8,29.95,NE,46,4.6,4.6,69,0.00,FEW,,0.20,807.0,WeatherDisplay:10.37,2013-08-07 10:11:00,
2013-08-07 12:16:00,77.2,66.7,29.94,NE,44,4.0,4.0,70,0.00,OVC,,0.20,151.0,WeatherDisplay:10.37,2013-08-07 10:16:00,
2013-08-07 12:22:00,78.3,68.1,29.94,NE,44,3.5,3.5,71,0.00,FEW,,0.20,786.0,WeatherDisplay:10.37,2013-08-07 10:22:00,
2013-08-07 12:27:00,78.8,67.8,29.93,NE,44,3.5,3.5,69,0.00,FEW,,0.20,775.0,WeatherDisplay:10.37,2013-08-07 10:27:00,
2013-08-07 12:32:00,79.2,66.4,29.93,NE,53,3.5,3.5,65,0.00,FEW,,0.20,775.0,WeatherDisplay:10.37,2013-08-07 10:32:00,
2013-08-07 12:37:00,79.6,68.1,29.93,NNE,13,4.0,4.0,68,0.00,FEW,,0.20,773.0,WeatherDisplay:10.37,2013-08-07 10:37:00,
2013-08-07 12:42:00,79.3,67.4,29.92,NE,36,6.9,6.9,67,0.00,SCT,,0.20,770.0,WeatherDisplay:10.37,2013-08-07 10:42:00,
2013-08-07 12:47:00,78.4,66.1,29.92,NE,48,6.9,6.9,66,0.00,FEW,,0.20,780.0,WeatherDisplay:10.37,2013-08-07 10:47:00,
2013-08-07 12:52:00,79.4,68.8,29.92,NE,48,3.5,3.5,70,0.00,FEW,,0.20,777.0,WeatherDisplay:10.37,2013-08-07 10:52:00,
2013-08-07 12:57:00,79.4,67.9,29.92,ENE,64,5.8,5.8,68,0.00,FEW,,0.20,777.0,WeatherDisplay:10.37,2013-08-07 10:57:00,
2013-08-07 13:02:00,78.4,64.8,29.91,ESE,109,8.1,8.1,63,0.00,FEW,,0.20,780.0,WeatherDisplay:10.37,2013-08-07 11:02:00,
2013-08-07 13:07:00,79.0,65.8,29.91,NE,45,10.4,10.4,64,0.00,FEW,,0.20,779.0,WeatherDisplay:10.37,2013-08-07 11:07:00,
2013-08-07 13:12:00,78.8,64.7,29.91,NE,52,10.4,10.4,62,0.00,FEW,,0.20,777.0,WeatherDisplay:10.37,2013-08-07 11:12:00,
2013-08-07 13:17:00,79.0,65.8,29.91,ENE,73,11.5,11.5,64,0.00,FEW,,0.20,775.0,WeatherDisplay:10.37,2013-08-07 11:17:00,
2013-08-07 13:22:00,79.2,66.0,29.91,NE,39,7.0,7.0,64,0.00,FEW,,0.20,775.0,WeatherDisplay:10.37,2013-08-07 11:22:00,
2013-08-07 13:27:00,79.1,66.3,29.91,East,83,10.0,10.0,65,0.00,FEW,,0.20,773.0,WeatherDisplay:10.37,2013-08-07 11:27:00,
2013-08-07 13:32:00,79.4,66.2,29.91,East,80,8.1,8.1,64,0.00,FEW,,0.20,773.0,WeatherDisplay:10.37,2013-08-07 11:32:00,
2013-08-07 13:37:00,79.3,65.6,29.90,ENE,64,9.0,9.0,63,0.00,FEW,,0.20,772.0,WeatherDisplay:10.37,2013-08-07 11:37:00,
2013-08-07 13:42:00,79.3,66.5,29.90,ENE,60,7.0,7.0,65,0.00,FEW,,0.20,772.0,WeatherDisplay:10.37,2013-08-07 11:42:00,
2013-08-07 13:47:00,79.7,66.4,29.90,NE,46,7.0,7.0,64,0.00,FEW,,0.20,766.0,WeatherDisplay:10.37,2013-08-07 11:47:00,
2013-08-07 13:52:00,79.9,67.1,29.90,East,84,6.0,6.0,65,0.00,FEW,,0.20,761.0,WeatherDisplay:10.37,2013-08-07 11:52:00,
2013-08-07 13:57:00,80.5,67.6,29.90,NE,55,10.0,10.0,65,0.00,FEW,,0.20,758.0,WeatherDisplay:10.37,2013-08-07 11:57:00,
2013-08-07 14:02:00,80.4,67.1,29.90,NE,41,6.9,6.9,64,0.00,FEW,,0.20,752.0,WeatherDisplay:10.37,2013-08-07 12:02:00,
2013-08-07 14:07:00,80.6,67.7,29.90,NE,56,8.1,8.1,65,0.00,FEW,,0.20,756.0,WeatherDisplay:10.37,2013-08-07 12:07:00,
2013-08-07 14:12:00,80.6,67.3,29.89,ENE,69,10.4,10.4,64,0.00,FEW,,0.20,742.0,WeatherDisplay:10.37,2013-08-07 12:12:00,
2013-08-07 14:17:00,80.7,66.5,29.89,NE,38,11.5,11.5,62,0.00,SCT,,0.20,733.0,WeatherDisplay:10.37,2013-08-07 12:17:00,
2013-08-07 14:22:00,80.3,67.0,29.89,NE,51,11.5,11.5,64,0.00,FEW,,0.20,738.0,WeatherDisplay:10.37,2013-08-07 12:22:00,
2013-08-07 14:27:00,81.0,68.1,29.89,SE,128,11.5,11.5,65,0.00,SCT,,0.20,714.0,WeatherDisplay:10.37,2013-08-07 12:27:00,
2013-08-07 14:32:00,81.0,67.7,29.89,East,82,11.0,11.0,64,0.00,SCT,,0.20,715.0,WeatherDisplay:10.37,2013-08-07 12:32:00,
2013-08-07 14:37:00,80.9,66.2,29.88,NE,53,11.0,11.0,61,0.00,SCT,,0.20,722.0,WeatherDisplay:10.37,2013-08-07 12:37:00,
2013-08-07 14:42:00,80.8,66.6,29.89,ESE,107,10.4,10.4,62,0.00,FEW,,0.20,726.0,WeatherDisplay:10.37,2013-08-07 12:42:00,
2013-08-07 14:47:00,81.0,65.8,29.89,East,91,7.0,7.0,60,0.00,SCT,,0.20,438.0,WeatherDisplay:10.37,2013-08-07 12:47:00,
2013-08-07 14:52:00,80.4,66.6,29.89,ENE,78,10.4,10.4,63,0.00,OVC,,0.20,343.0,WeatherDisplay:10.37,2013-08-07 12:52:00,
2013-08-07 14:57:00,80.1,66.8,29.89,ENE,69,6.0,6.0,64,0.00,BKN,,0.20,392.0,WeatherDisplay:10.37,2013-08-07 12:57:00,
2013-08-07 15:02:00,80.5,67.6,29.89,East,96,5.8,5.8,65,0.00,BKN,,0.20,396.0,WeatherDisplay:10.37,2013-08-07 13:02:00,
2013-08-07 15:07:00,80.9,68.5,29.89,East,86,8.1,8.1,66,0.00,BKN,,0.20,410.0,WeatherDisplay:10.37,2013-08-07 13:07:00,
2013-08-07 15:12:00,80.8,68.8,29.88,East,90,5.8,5.8,67,0.00,BKN,,0.20,399.0,WeatherDisplay:10.37,2013-08-07 13:12:00,
2013-08-07 15:17:00,80.6,67.7,29.88,ENE,64,8.1,8.1,65,0.00,SCT,,0.20,522.0,WeatherDisplay:10.37,2013-08-07 13:17:00,
2013-08-07 15:22:00,81.0,67.2,29.88,East,90,8.1,8.1,63,0.00,SCT,,0.20,561.0,WeatherDisplay:10.37,2013-08-07 13:22:00,
2013-08-07 15:27:00,81.8,68.4,29.87,ENE,64,8.1,8.1,64,0.00,FEW,,0.20,671.0,WeatherDisplay:10.37,2013-08-07 13:27:00,
2013-08-07 15:32:00,82.4,68.1,29.88,East,86,11.5,11.5,62,0.00,FEW,,0.20,744.0,WeatherDisplay:10.37,2013-08-07 13:32:00,
2013-08-07 15:37:00,82.4,68.1,29.87,East,92,11.5,11.5,62,0.00,FEW,,0.20,654.0,WeatherDisplay:10.37,2013-08-07 13:37:00,
2013-08-07 15:42:00,82.6,67.8,29.88,ENE,65,11.5,11.5,61,0.00,FEW,,0.20,703.0,WeatherDisplay:10.37,2013-08-07 13:42:00,
2013-08-07 15:47:00,82.9,68.5,29.87,ENE,74,11.0,11.0,62,0.00,FEW,,0.20,675.0,WeatherDisplay:10.37,2013-08-07 13:47:00,
2013-08-07 15:52:00,82.6,68.3,29.87,NE,55,11.5,11.5,62,0.00,FEW,,0.20,663.0,WeatherDisplay:10.37,2013-08-07 13:52:00,
2013-08-07 15:57:00,82.6,68.3,29.87,NE,47,10.4,10.4,62,0.00,FEW,,0.20,613.0,WeatherDisplay:10.37,2013-08-07 13:57:00,
2013-08-07 16:02:00,82.5,68.6,29.87,NE,41,12.7,12.7,63,0.00,FEW,,0.20,601.0,WeatherDisplay:10.37,2013-08-07 14:02:00,
2013-08-07 16:07:00,83.0,68.6,29.87,ENE,75,8.1,8.1,62,0.00,FEW,,0.20,599.0,WeatherDisplay:10.37,2013-08-07 14:07:00,
2013-08-07 16:12:00,82.8,68.4,29.86,NE,55,14.0,14.0,62,0.00,FEW,,0.20,508.0,WeatherDisplay:10.37,2013-08-07 14:12:00,
2013-08-07 16:17:00,82.4,68.5,29.87,ENE,61,8.1,8.1,63,0.00,FEW,,0.20,578.0,WeatherDisplay:10.37,2013-08-07 14:17:00,
2013-08-07 16:22:00,82.7,67.9,29.87,NE,55,8.0,8.0,61,0.00,FEW,,0.20,589.0,WeatherDisplay:10.37,2013-08-07 14:22:00,
2013-08-07 16:27:00,83.3,69.4,29.86,ENE,76,10.4,10.4,63,0.00,FEW,,0.20,571.0,WeatherDisplay:10.37,2013-08-07 14:27:00,
2013-08-07 16:32:00,83.3,68.4,29.86,NE,55,11.0,11.0,61,0.00,FEW,,0.20,550.0,WeatherDisplay:10.37,2013-08-07 14:32:00,
2013-08-07 16:37:00,83.5,69.1,29.86,NE,52,12.0,12.0,62,0.00,FEW,,0.20,536.0,WeatherDisplay:10.37,2013-08-07 14:37:00,
2013-08-07 16:42:00,83.1,68.3,29.87,ENE,69,8.1,8.1,61,0.00,SCT,,0.20,471.0,WeatherDisplay:10.37,2013-08-07 14:42:00,
2013-08-07 16:47:00,83.5,68.6,29.86,NE,51,10.4,10.4,61,0.00,FEW,,0.20,487.0,WeatherDisplay:10.37,2013-08-07 14:47:00,
2013-08-07 16:52:00,83.5,68.6,29.86,East,94,6.0,6.0,61,0.00,SCT,,0.20,457.0,WeatherDisplay:10.37,2013-08-07 14:52:00,
2013-08-07 16:57:00,83.5,67.7,29.86,ENE,70,8.1,8.1,59,0.00,SCT,,0.20,443.0,WeatherDisplay:10.37,2013-08-07 14:57:00,
2013-08-07 17:02:00,83.6,67.8,29.86,ENE,68,11.5,11.5,59,0.00,SCT,,0.20,432.0,WeatherDisplay:10.37,2013-08-07 15:02:00,
2013-08-07 17:07:00,83.5,67.7,29.85,NE,52,11.5,11.5,59,0.00,SCT,,0.20,410.0,WeatherDisplay:10.37,2013-08-07 15:07:00,
2013-08-07 17:12:00,83.7,68.8,29.85,ENE,62,5.8,5.8,61,0.00,SCT,,0.20,413.0,WeatherDisplay:10.37,2013-08-07 15:12:00,
2013-08-07 17:18:00,83.6,68.2,29.85,ENE,72,8.0,8.0,60,0.00,BKN,,0.20,186.0,WeatherDisplay:10.37,2013-08-07 15:18:00,
2013-08-07 17:23:00,83.1,68.3,29.85,ENE,66,8.1,8.1,61,0.00,BKN,,0.20,244.0,WeatherDisplay:10.37,2013-08-07 15:23:00,
2013-08-07 17:28:00,83.3,67.5,29.85,East,93,6.9,6.9,59,0.00,SCT,,0.20,360.0,WeatherDisplay:10.37,2013-08-07 15:28:00,
2013-08-07 17:33:00,83.4,67.6,29.85,ENE,63,8.1,8.1,59,0.00,SCT,,0.20,355.0,WeatherDisplay:10.37,2013-08-07 15:33:00,
2013-08-07 17:38:00,83.4,67.6,29.85,NE,46,5.8,5.8,59,0.00,OVC,,0.20,239.0,WeatherDisplay:10.37,2013-08-07 15:38:00,
2013-08-07 17:43:00,83.1,67.3,29.84,ENE,78,7.0,7.0,59,0.00,BKN,,0.20,241.0,WeatherDisplay:10.37,2013-08-07 15:43:00,
2013-08-07 17:48:00,83.0,67.7,29.84,East,79,6.0,6.0,60,0.00,BKN,,0.20,153.0,WeatherDisplay:10.37,2013-08-07 15:48:00,
2013-08-07 17:53:00,82.7,67.9,29.84,ENE,64,5.8,5.8,61,0.00,BKN,,0.20,151.0,WeatherDisplay:10.37,2013-08-07 15:53:00,
2013-08-07 17:58:00,82.4,67.6,29.84,ENE,63,5.0,5.0,61,0.00,BKN,,0.20,206.0,WeatherDisplay:10.37,2013-08-07 15:58:00,
2013-08-07 18:03:00,82.5,68.2,29.84,ENE,69,5.8,5.8,62,0.00,BKN,,0.20,193.0,WeatherDisplay:10.37,2013-08-07 16:03:00,
2013-08-07 18:08:00,82.4,68.5,29.84,ENE,68,3.5,3.5,63,0.00,OVC,,0.20,158.0,WeatherDisplay:10.37,2013-08-07 16:08:00,
2013-08-07 18:13:00,82.1,68.3,29.84,ENE,66,5.0,5.0,63,0.00,BKN,,0.20,81.0,WeatherDisplay:10.37,2013-08-07 16:13:00,
2013-08-07 18:18:00,81.6,68.7,29.84,ENE,66,3.5,3.5,65,0.00,OVC,,0.20,90.0,WeatherDisplay:10.37,2013-08-07 16:18:00,
2013-08-07 18:23:00,81.3,68.4,29.84,ENE,66,5.0,5.0,65,0.00,BKN,,0.20,221.0,WeatherDisplay:10.37,2013-08-07 16:23:00,
2013-08-07 18:28:00,81.9,68.5,29.83,NE,56,3.5,3.5,64,0.00,SCT,,0.20,218.0,WeatherDisplay:10.37,2013-08-07 16:28:00,
2013-08-07 18:33:00,82.2,68.3,29.83,NE,56,3.5,3.5,63,0.00,BKN,,0.20,141.0,WeatherDisplay:10.37,2013-08-07 16:33:00,
2013-08-07 18:38:00,82.1,68.7,29.83,NE,56,3.5,3.5,64,0.00,BKN,,0.20,142.0,WeatherDisplay:10.37,2013-08-07 16:38:00,
2013-08-07 18:43:00,82.0,68.6,29.83,NE,56,3.5,3.5,64,0.00,BKN,,0.20,141.0,WeatherDisplay:10.37,2013-08-07 16:43:00,
2013-08-07 18:48:00,81.8,68.9,29.83,NE,56,3.5,3.5,65,0.00,BKN,,0.20,84.0,WeatherDisplay:10.37,2013-08-07 16:48:00,
2013-08-07 18:53:00,81.4,68.5,29.83,NE,56,3.0,3.0,65,0.00,SCT,,0.20,146.0,WeatherDisplay:10.37,2013-08-07 16:53:00,
2013-08-07 18:58:00,81.5,69.0,29.83,NE,56,3.5,3.5,66,0.00,SCT,,0.20,146.0,WeatherDisplay:10.37,2013-08-07 16:58:00,
2013-08-07 19:03:00,81.5,69.0,29.82,NE,56,4.0,4.0,66,0.00,SCT,,0.20,123.0,WeatherDisplay:10.37,2013-08-07 17:03:00,
2013-08-07 19:08:00,81.5,69.0,29.82,NE,56,4.0,4.0,66,0.00,BKN,,0.20,76.0,WeatherDisplay:10.37,2013-08-07 17:08:00,
2013-08-07 19:13:00,81.2,69.2,29.82,NE,56,4.0,4.0,67,0.00,BKN,,0.20,67.0,WeatherDisplay:10.37,2013-08-07 17:13:00,
2013-08-07 19:18:00,81.1,69.5,29.82,NE,56,3.5,3.5,68,0.00,OVC,,0.20,58.0,WeatherDisplay:10.37,2013-08-07 17:18:00,
2013-08-07 19:23:00,80.7,70.0,29.82,NE,56,2.3,2.3,70,0.00,OVC,,0.20,54.0,WeatherDisplay:10.37,2013-08-07 17:23:00,
2013-08-07 19:28:00,80.3,70.0,29.82,NE,56,2.3,2.3,71,0.00,OVC,,0.20,44.0,WeatherDisplay:10.37,2013-08-07 17:28:00,
2013-08-07 19:33:00,80.3,69.6,29.82,NE,56,0.0,0.0,70,0.00,OVC,,0.20,30.0,WeatherDisplay:10.37,2013-08-07 17:33:00,
2013-08-07 19:38:00,79.4,69.6,29.82,NE,56,0.0,0.0,72,0.00,OVC,,0.20,21.0,WeatherDisplay:10.37,2013-08-07 17:38:00,
2013-08-07 19:43:00,78.9,69.1,29.82,NE,56,1.2,0.0,72,0.00,OVC,,0.20,18.0,WeatherDisplay:10.37,2013-08-07 17:43:00,
2013-08-07 19:48:00,79.0,69.2,29.82,NE,56,0.0,0.0,72,0.00,OVC,,0.20,18.0,WeatherDisplay:10.37,2013-08-07 17:48:00,
2013-08-07 19:53:00,78.6,68.4,29.82,NE,56,0.0,0.0,71,0.00,OVC,,0.20,18.0,WeatherDisplay:10.37,2013-08-07 17:53:00,
2013-08-07 19:58:00,78.2,68.4,29.82,NE,56,1.2,1.2,72,0.00,OVC,,0.20,16.0,WeatherDisplay:10.37,2013-08-07 17:58:00,
2013-08-07 20:03:00,77.4,68.5,29.82,NE,56,3.0,3.0,74,0.00,OVC,,0.20,12.0,WeatherDisplay:10.37,2013-08-07 18:03:00,
2013-08-07 20:08:00,77.5,67.8,29.82,NE,56,1.2,0.0,72,0.00,OVC,,0.20,11.0,WeatherDisplay:10.37,2013-08-07 18:08:00,
2013-08-07 20:13:00,76.9,67.2,29.82,NE,56,0.0,0.0,72,0.00,OVC,,0.20,9.0,WeatherDisplay:10.37,2013-08-07 18:13:00,
2013-08-07 20:18:00,76.5,68.4,29.81,NE,56,0.0,0.0,76,0.00,OVC,,0.20,7.0,WeatherDisplay:10.37,2013-08-07 18:18:00,
2013-08-07 20:24:00,76.3,68.6,29.82,NE,56,0.0,0.0,77,0.00,BKN,,0.20,7.0,WeatherDisplay:10.37,2013-08-07 18:24:00,
2013-08-07 20:29:00,76.1,68.4,29.82,NE,56,0.0,0.0,77,0.00,FEW,,0.20,5.0,WeatherDisplay:10.37,2013-08-07 18:29:00,
2013-08-07 20:34:00,75.7,68.7,29.81,NE,56,0.0,0.0,79,0.00,OVC,,0.20,0.0,WeatherDisplay:10.37,2013-08-07 18:34:00,
2013-08-07 20:39:00,74.9,67.9,29.81,NE,56,0.0,0.0,79,0.00,OVC,,0.20,0.0,WeatherDisplay:10.37,2013-08-07 18:39:00,
2013-08-07 20:44:00,74.5,68.3,29.81,NE,56,0.0,0.0,81,0.00,OVC,,0.20,0.0,WeatherDisplay:10.37,2013-08-07 18:44:00,
2013-08-07 20:49:00,74.2,68.0,29.81,NE,56,0.0,0.0,81,0.00,OVC,,0.20,0.0,WeatherDisplay:10.37,2013-08-07 18:49:00,
2013-08-07 20:54:00,73.9,68.1,29.81,NE,56,0.0,0.0,82,0.00,OVC,,0.20,0.0,WeatherDisplay:10.37,2013-08-07 18:54:00,
2013-08-07 20:59:00,74.2,68.0,29.81,NE,56,1.2,1.2,81,0.00,OVC,,0.20,0.0,WeatherDisplay:10.37,2013-08-07 18:59:00,
2013-08-07 21:04:00,73.8,67.6,29.81,NE,56,0.0,0.0,81,0.00,CLR,,0.20,0.0,WeatherDisplay:10.37,2013-08-07 19:04:00,
2013-08-07 21:09:00,73.7,67.9,29.81,NE,56,2.3,2.3,82,0.00,CLR,,0.20,0.0,WeatherDisplay:10.37,2013-08-07 19:09:00,
2013-08-07 21:14:00,73.4,67.6,29.81,NE,56,1.2,0.0,82,0.00,CLR,,0.20,0.0,WeatherDisplay:10.37,2013-08-07 19:14:00,
2013-08-07 21:19:00,73.2,67.4,29.81,NE,56,2.3,2.3,82,0.00,CLR,,0.20,0.0,WeatherDisplay:10.37,2013-08-07 19:19:00,
2013-08-07 21:24:00,72.8,67.3,29.81,NE,56,1.2,1.2,83,0.00,CLR,,0.20,0.0,WeatherDisplay:10.37,2013-08-07 19:24:00,
2013-08-07 21:29:00,72.6,67.1,29.81,NE,56,1.2,1.2,83,0.00,CLR,,0.20,0.0,WeatherDisplay:10.37,2013-08-07 19:29:00,
2013-08-07 21:34:00,72.4,66.9,29.81,NE,56,2.3,2.3,83,0.00,CLR,,0.20,0.0,WeatherDisplay:10.37,2013-08-07 19:34:00,
2013-08-07 21:39:00,72.4,66.9,29.81,NE,56,1.2,1.2,83,0.00,CLR,,0.20,0.0,WeatherDisplay:10.37,2013-08-07 19:39:00,
2013-08-07 21:44:00,72.0,66.6,29.82,NE,56,2.3,2.3,83,0.00,CLR,,0.20,0.0,WeatherDisplay:10.37,2013-08-07 19:44:00,
2013-08-07 21:49:00,72.0,66.6,29.82,NE,56,0.0,0.0,83,0.00,CLR,,0.20,0.0,WeatherDisplay:10.37,2013-08-07 19:49:00,
2013-08-07 21:54:00,72.2,66.7,29.82,NE,56,0.0,0.0,83,0.00,CLR,,0.20,0.0,WeatherDisplay:10.37,2013-08-07 19:54:00,
2013-08-07 21:59:00,72.0,66.6,29.82,NE,56,1.0,1.0,83,0.00,CLR,,0.20,0.0,WeatherDisplay:10.37,2013-08-07 19:59:00,
2013-08-07 22:04:00,72.2,66.7,29.82,NE,56,2.3,2.3,83,0.00,CLR,,0.20,0.0,WeatherDisplay:10.37,2013-08-07 20:04:00,
2013-08-07 22:09:00,72.3,66.8,29.82,NE,56,2.3,2.3,83,0.00,CLR,,0.20,0.0,WeatherDisplay:10.37,2013-08-07 20:09:00,
2013-08-07 22:14:00,72.4,66.9,29.82,NE,56,0.0,0.0,83,0.00,CLR,,0.20,0.0,WeatherDisplay:10.37,2013-08-07 20:14:00,
2013-08-07 22:19:00,72.1,67.0,29.82,NE,56,1.2,1.2,84,0.00,CLR,,0.20,0.0,WeatherDisplay:10.37,2013-08-07 20:19:00,
2013-08-07 22:24:00,72.0,66.9,29.82,NE,56,0.0,0.0,84,0.00,CLR,,0.20,0.0,WeatherDisplay:10.37,2013-08-07 20:24:00,
2013-08-07 22:29:00,71.7,66.6,29.82,NE,56,0.0,0.0,84,0.00,CLR,,0.20,0.0,WeatherDisplay:10.37,2013-08-07 20:29:00,
2013-08-07 22:34:00,71.4,66.3,29.82,NE,56,0.0,0.0,84,0.00,CLR,,0.20,0.0,WeatherDisplay:10.37,2013-08-07 20:34:00,
2013-08-07 22:39:00,71.2,66.1,29.82,NE,56,0.0,0.0,84,0.00,CLR,,0.20,0.0,WeatherDisplay:10.37,2013-08-07 20:39:00,
2013-08-07 22:44:00,71.4,66.3,29.82,NE,56,1.0,1.0,84,0.00,CLR,,0.20,0.0,WeatherDisplay:10.37,2013-08-07 20:44:00,
2013-08-07 22:49:00,71.5,66.4,29.83,NE,56,1.2,1.2,84,0.00,CLR,,0.20,0.0,WeatherDisplay:10.37,2013-08-07 20:49:00,
2013-08-07 22:54:00,71.5,66.4,29.83,NE,56,2.3,2.3,84,0.00,CLR,,0.20,0.0,WeatherDisplay:10.37,2013-08-07 20:54:00,
2013-08-07 22:59:00,71.6,66.5,29.83,NE,56,2.3,2.3,84,0.00,CLR,,0.20,0.0,WeatherDisplay:10.37,2013-08-07 20:59:00,
2013-08-07 23:04:00,71.7,66.6,29.83,NE,56,2.3,2.3,84,0.00,CLR,,0.20,0.0,WeatherDisplay:10.37,2013-08-07 21:04:00,
2013-08-07 23:09:00,71.9,66.8,29.84,ENE,67,3.5,3.5,84,0.00,CLR,,0.20,0.0,WeatherDisplay:10.37,2013-08-07 21:09:00,
2013-08-07 23:14:00,72.4,66.9,29.83,East,93,3.5,3.5,83,0.00,CLR,,0.20,0.0,WeatherDisplay:10.37,2013-08-07 21:14:00,
2013-08-07 23:19:00,73.1,66.9,29.83,East,92,4.6,4.6,81,0.00,CLR,,0.20,0.0,WeatherDisplay:10.37,2013-08-07 21:19:00,
2013-08-07 23:24:00,73.6,67.0,29.82,East,85,3.5,3.5,80,0.00,CLR,,0.20,0.0,WeatherDisplay:10.37,2013-08-07 21:24:00,
2013-08-07 23:29:00,73.7,66.8,29.82,East,88,3.5,3.5,79,0.00,CLR,,0.20,0.0,WeatherDisplay:10.37,2013-08-07 21:29:00,
2013-08-07 23:34:00,73.7,67.1,29.83,East,93,3.5,3.5,80,0.00,CLR,,0.20,0.0,WeatherDisplay:10.37,2013-08-07 21:34:00,
2013-08-07 23:39:00,73.5,66.9,29.83,East,94,3.5,3.5,80,0.00,CLR,,0.20,0.0,WeatherDisplay:10.37,2013-08-07 21:39:00,
2013-08-07 23:44:00,73.5,66.9,29.82,East,94,4.0,4.0,80,0.00,CLR,,0.20,0.0,WeatherDisplay:10.37,2013-08-07 21:44:00,
2013-08-07 23:49:00,73.2,67.0,29.82,East,82,2.3,2.3,81,0.00,CLR,,0.20,0.0,WeatherDisplay:10.37,2013-08-07 21:49:00,
2013-08-07 23:54:00,73.5,66.9,29.81,East,92,4.0,4.0,80,0.00,CLR,,0.20,0.0,WeatherDisplay:10.37,2013-08-07 21:54:00,
2013-08-07 23:59:00,73.6,67.0,29.81,East,82,4.6,4.6,80,0.00,CLR,,0.20,0.0,WeatherDisplay:10.37,2013-08-07 21:59:00,